createdAt,value
2022-09-12T00:00:55.322Z,17.49
2022-09-12T00:01:55.299Z,17.46
2022-09-12T00:02:55.215Z,17.41
2022-09-12T00:03:55.221Z,17.59
2022-09-12T00:04:55.179Z,17.46
2022-09-12T00:05:55.165Z,17.47
2022-09-12T00:06:55.154Z,17.45
2022-09-12T00:07:55.137Z,17.46
2022-09-12T00:08:55.111Z,17.39
2022-09-12T00:09:55.102Z,17.41
2022-09-12T00:10:55.084Z,17.46
2022-09-12T00:11:55.065Z,17.43
2022-09-12T00:12:55.047Z,17.37
2022-09-12T00:13:55.033Z,17.39
2022-09-12T00:14:55.018Z,17.39
2022-09-12T00:15:55.002Z,17.38
2022-09-12T00:16:55.012Z,17.39
2022-09-12T00:17:54.962Z,17.39
2022-09-12T00:18:54.948Z,17.35
2022-09-12T00:19:54.957Z,17.38
2022-09-12T00:20:54.917Z,17.37
2022-09-12T00:21:54.895Z,17.35
2022-09-12T00:22:54.886Z,17.34
2022-09-12T00:23:54.866Z,17.34
2022-09-12T00:24:54.849Z,17.34
2022-09-12T00:25:54.831Z,17.22
2022-09-12T00:26:54.816Z,17.17
2022-09-12T00:27:54.799Z,17.12
2022-09-12T00:28:54.783Z,17.02
2022-09-12T00:29:54.767Z,17.10
2022-09-12T00:30:54.750Z,17.07
2022-09-12T00:31:54.771Z,17.13
2022-09-12T00:32:54.724Z,17.14
2022-09-12T00:33:54.696Z,17.13
2022-09-12T00:34:54.687Z,17.09
2022-09-12T00:35:54.691Z,17.17
2022-09-12T00:36:54.645Z,17.12
2022-09-12T00:37:54.629Z,17.16
2022-09-12T00:38:54.722Z,17.22
2022-09-12T00:39:54.615Z,17.13
2022-09-12T00:40:54.582Z,17.09
2022-09-12T00:41:54.562Z,17.09
2022-09-12T00:42:54.550Z,17.13
2022-09-12T00:43:54.544Z,17.10
2022-09-12T00:44:54.513Z,17.01
2022-09-12T00:45:54.527Z,17.02
2022-09-12T00:46:54.479Z,16.98
2022-09-12T00:47:54.462Z,16.92
2022-09-12T00:48:54.448Z,16.84
2022-09-12T00:49:54.427Z,16.83
2022-09-12T00:50:54.417Z,16.84
2022-09-12T00:51:54.414Z,16.77
2022-09-12T00:52:54.389Z,16.76
2022-09-12T00:53:54.364Z,16.70
2022-09-12T00:54:54.347Z,16.69
2022-09-12T00:55:54.333Z,16.84
2022-09-12T00:56:54.312Z,16.67
2022-09-12T00:57:54.296Z,16.74
2022-09-12T00:58:54.282Z,16.72
2022-09-12T00:59:54.264Z,16.76
2022-09-12T01:00:54.313Z,16.88
2022-09-12T01:01:54.331Z,16.90
2022-09-12T01:02:54.213Z,16.95
2022-09-12T01:03:54.199Z,16.84
2022-09-12T01:04:54.177Z,16.94
2022-09-12T01:05:54.159Z,16.94
2022-09-12T01:06:54.148Z,16.91
2022-09-12T01:07:54.148Z,16.83
2022-09-12T01:08:54.114Z,16.95
2022-09-12T01:09:54.094Z,16.91
2022-09-12T01:10:54.075Z,16.83
2022-09-12T01:11:54.056Z,16.90
2022-09-12T01:12:54.041Z,16.94
2022-09-12T01:13:54.024Z,16.84
2022-09-12T01:14:54.011Z,16.83
2022-09-12T01:15:53.989Z,16.82
2022-09-12T01:16:53.981Z,16.84
2022-09-12T01:17:53.957Z,16.91
2022-09-12T01:18:53.939Z,16.87
2022-09-12T01:19:53.925Z,16.83
2022-09-12T01:20:53.909Z,16.91
2022-09-12T01:21:53.891Z,16.84
2022-09-12T01:22:53.870Z,16.69
2022-09-12T01:23:53.873Z,16.72
2022-09-12T01:24:53.839Z,16.72
2022-09-12T01:25:53.823Z,16.70
2022-09-12T01:26:53.805Z,16.74
2022-09-12T01:27:53.788Z,16.73
2022-09-12T01:28:53.770Z,16.72
2022-09-12T01:29:53.751Z,16.70
2022-09-12T01:30:53.735Z,16.73
2022-09-12T01:31:53.785Z,16.59
2022-09-12T01:32:53.702Z,16.59
2022-09-12T01:33:53.685Z,16.49
2022-09-12T01:34:53.671Z,16.58
2022-09-12T01:35:53.650Z,16.47
2022-09-12T01:36:53.637Z,16.49
2022-09-12T01:37:53.616Z,16.46
2022-09-12T01:38:53.600Z,16.47
2022-09-12T01:39:53.668Z,16.39
2022-09-12T01:40:53.564Z,16.33
2022-09-12T01:41:53.547Z,16.34
2022-09-12T01:42:53.537Z,16.29
2022-09-12T01:43:53.512Z,16.39
2022-09-12T01:44:53.500Z,16.51
2022-09-12T01:45:53.497Z,16.46
2022-09-12T01:46:53.464Z,16.42
2022-09-12T01:47:53.447Z,16.44
2022-09-12T01:48:53.429Z,16.44
2022-09-12T01:49:53.412Z,16.43
2022-09-12T01:50:53.397Z,16.29
2022-09-12T01:51:53.377Z,16.32
2022-09-12T01:52:53.357Z,16.24
2022-09-12T01:53:53.342Z,16.22
2022-09-12T01:54:53.327Z,16.21
2022-09-12T01:55:53.330Z,16.09
2022-09-12T01:56:53.290Z,16.18
2022-09-12T01:57:53.274Z,16.18
2022-09-12T01:58:53.261Z,16.32
2022-09-12T01:59:53.237Z,16.34
2022-09-12T02:00:53.292Z,16.33
2022-09-12T02:01:53.219Z,16.32
2022-09-12T02:02:53.186Z,16.36
2022-09-12T02:03:53.171Z,16.32
2022-09-12T02:04:53.153Z,16.33
2022-09-12T02:05:53.137Z,16.34
2022-09-12T02:06:53.125Z,16.33
2022-09-12T02:07:53.102Z,16.28
2022-09-12T02:08:53.085Z,16.34
2022-09-12T02:09:53.067Z,16.28
2022-09-12T02:10:53.050Z,16.29
2022-09-12T02:11:53.051Z,16.26
2022-09-12T02:12:53.013Z,16.28
2022-09-12T02:13:52.998Z,16.33
2022-09-12T02:14:52.980Z,16.32
2022-09-12T02:15:52.964Z,16.21
2022-09-12T02:16:52.949Z,16.17
2022-09-12T02:17:52.935Z,16.09
2022-09-12T02:18:52.909Z,16.10
2022-09-12T02:19:52.890Z,16.13
2022-09-12T02:20:52.874Z,16.16
2022-09-12T02:21:52.857Z,16.09
2022-09-12T02:22:52.841Z,16.09
2022-09-12T02:23:52.829Z,16.24
2022-09-12T02:24:52.809Z,16.06
2022-09-12T02:25:52.790Z,16.13
2022-09-12T02:26:52.778Z,16.05
2022-09-12T02:27:52.776Z,16.03
2022-09-12T02:28:52.748Z,15.99
2022-09-12T02:29:52.721Z,15.98
2022-09-12T02:30:52.811Z,15.88
2022-09-12T02:31:52.689Z,15.96
2022-09-12T02:32:52.674Z,15.96
2022-09-12T02:33:52.653Z,15.98
2022-09-12T02:34:52.633Z,15.98
2022-09-12T02:35:52.618Z,16.02
2022-09-12T02:36:52.596Z,16.05
2022-09-12T02:37:52.580Z,16.03
2022-09-12T02:38:52.567Z,16.06
2022-09-12T02:39:52.584Z,16.03
2022-09-12T02:40:52.533Z,16.10
2022-09-12T02:41:52.512Z,16.03
2022-09-12T02:42:52.494Z,16.00
2022-09-12T02:43:52.498Z,16.06
2022-09-12T02:44:52.464Z,15.95
2022-09-12T02:45:52.523Z,15.90
2022-09-12T02:46:52.424Z,15.90
2022-09-12T02:47:52.411Z,15.88
2022-09-12T02:48:52.390Z,15.87
2022-09-12T02:49:52.372Z,15.95
2022-09-12T02:50:52.354Z,15.93
2022-09-12T02:51:52.340Z,15.96
2022-09-12T02:52:52.321Z,15.87
2022-09-12T02:53:52.306Z,15.93
2022-09-12T02:54:52.289Z,15.99
2022-09-12T02:55:52.270Z,15.96
2022-09-12T02:56:52.249Z,15.93
2022-09-12T02:57:52.233Z,15.98
2022-09-12T02:58:52.216Z,16.00
2022-09-12T02:59:52.220Z,16.02
2022-09-12T03:00:52.233Z,15.98
2022-09-12T03:01:52.179Z,15.96
2022-09-12T03:02:52.151Z,15.90
2022-09-12T03:03:52.126Z,15.91
2022-09-12T03:04:52.111Z,15.88
2022-09-12T03:05:52.093Z,15.87
2022-09-12T03:06:52.077Z,15.70
2022-09-12T03:07:52.056Z,15.72
2022-09-12T03:08:52.043Z,15.65
2022-09-12T03:09:52.020Z,15.68
2022-09-12T03:10:52.007Z,15.63
2022-09-12T03:11:51.992Z,15.69
2022-09-12T03:12:51.972Z,15.73
2022-09-12T03:13:51.952Z,15.69
2022-09-12T03:14:51.938Z,15.76
2022-09-12T03:15:51.941Z,15.81
2022-09-12T03:16:51.901Z,15.80
2022-09-12T03:17:51.883Z,15.62
2022-09-12T03:18:51.870Z,15.69
2022-09-12T03:19:51.846Z,15.65
2022-09-12T03:20:51.827Z,15.59
2022-09-12T03:21:51.812Z,15.51
2022-09-12T03:22:51.795Z,15.47
2022-09-12T03:23:51.783Z,15.45
2022-09-12T03:24:51.764Z,15.32
2022-09-12T03:25:51.742Z,15.33
2022-09-12T03:26:51.724Z,15.26
2022-09-12T03:27:51.707Z,15.38
2022-09-12T03:28:51.690Z,15.30
2022-09-12T03:29:51.668Z,15.45
2022-09-12T03:30:51.752Z,15.40
2022-09-12T03:31:51.659Z,15.44
2022-09-12T03:32:51.620Z,15.48
2022-09-12T03:33:51.597Z,15.47
2022-09-12T03:34:51.580Z,15.52
2022-09-12T03:35:51.562Z,15.44
2022-09-12T03:36:51.551Z,15.44
2022-09-12T03:37:51.529Z,15.44
2022-09-12T03:38:51.510Z,15.45
2022-09-12T03:39:51.558Z,15.45
2022-09-12T03:40:54.829Z,15.48
2022-09-12T03:41:51.460Z,15.51
2022-09-12T03:42:51.447Z,15.60
2022-09-12T03:43:51.424Z,15.54
2022-09-12T03:44:51.406Z,15.58
2022-09-12T03:45:51.466Z,15.58
2022-09-12T03:46:51.367Z,15.63
2022-09-12T03:47:51.368Z,15.62
2022-09-12T03:48:51.342Z,15.63
2022-09-12T03:49:51.312Z,15.58
2022-09-12T03:50:51.298Z,15.60
2022-09-12T03:51:51.280Z,15.62
2022-09-12T03:52:51.263Z,15.58
2022-09-12T03:53:51.243Z,15.59
2022-09-12T03:54:51.224Z,15.59
2022-09-12T03:55:51.211Z,15.54
2022-09-12T03:56:51.195Z,15.58
2022-09-12T03:57:51.169Z,15.59
2022-09-12T03:58:51.156Z,15.59
2022-09-12T03:59:51.135Z,15.59
2022-09-12T04:00:51.174Z,15.48
2022-09-12T04:01:51.171Z,15.43
2022-09-12T04:02:51.084Z,15.43
2022-09-12T04:03:51.086Z,15.36
2022-09-12T04:04:51.051Z,15.32
2022-09-12T04:05:51.028Z,15.32
2022-09-12T04:06:51.010Z,15.32
2022-09-12T04:07:50.994Z,15.33
2022-09-12T04:08:50.976Z,15.45
2022-09-12T04:09:50.964Z,15.43
2022-09-12T04:10:51.091Z,15.43
2022-09-12T04:11:50.923Z,15.44
2022-09-12T04:12:50.907Z,15.44
2022-09-12T04:13:50.890Z,15.50
2022-09-12T04:14:50.871Z,15.45
2022-09-12T04:15:50.849Z,15.45
2022-09-12T04:16:50.870Z,15.44
2022-09-12T04:17:50.818Z,15.51
2022-09-12T04:18:50.798Z,15.47
2022-09-12T04:19:50.801Z,15.48
2022-09-12T04:20:50.762Z,15.47
2022-09-12T04:21:50.745Z,15.51
2022-09-12T04:22:50.725Z,15.47
2022-09-12T04:23:50.720Z,15.38
2022-09-12T04:24:50.701Z,15.26
2022-09-12T04:25:50.675Z,15.19
2022-09-12T04:26:50.660Z,15.14
2022-09-12T04:27:50.637Z,15.11
2022-09-12T04:28:50.617Z,15.10
2022-09-12T04:29:50.598Z,14.97
2022-09-12T04:30:50.647Z,15.05
2022-09-12T04:31:50.565Z,15.19
2022-09-12T04:32:50.544Z,15.11
2022-09-12T04:33:50.528Z,15.20
2022-09-12T04:34:50.512Z,15.19
2022-09-12T04:35:50.517Z,15.27
2022-09-12T04:36:50.474Z,15.25
2022-09-12T04:37:50.461Z,15.25
2022-09-12T04:38:50.442Z,15.22
2022-09-12T04:39:50.485Z,15.29
2022-09-12T04:40:50.413Z,15.23
2022-09-12T04:41:50.397Z,15.27
2022-09-12T04:42:50.370Z,15.19
2022-09-12T04:43:50.346Z,15.10
2022-09-12T04:44:50.333Z,15.12
2022-09-12T04:45:50.355Z,15.15
2022-09-12T04:46:50.296Z,15.04
2022-09-12T04:47:50.280Z,15.05
2022-09-12T04:48:54.484Z,15.14
2022-09-12T04:49:50.243Z,15.14
2022-09-12T04:50:50.221Z,15.14
2022-09-12T04:51:50.223Z,15.14
2022-09-12T04:52:50.191Z,15.11
2022-09-12T04:53:50.166Z,15.14
2022-09-12T04:54:50.154Z,15.15
2022-09-12T04:55:50.128Z,15.20
2022-09-12T04:56:50.115Z,15.17
2022-09-12T04:57:50.094Z,15.10
2022-09-12T04:58:50.080Z,15.17
2022-09-12T04:59:50.061Z,15.08
2022-09-12T05:00:50.042Z,15.14
2022-09-12T05:01:50.117Z,15.11
2022-09-12T05:02:50.007Z,15.12
2022-09-12T05:03:49.987Z,15.12
2022-09-12T05:04:49.973Z,15.11
2022-09-12T05:05:53.293Z,15.12
2022-09-12T05:06:49.948Z,15.17
2022-09-12T05:07:49.947Z,15.22
2022-09-12T05:08:49.902Z,15.20
2022-09-12T05:09:49.875Z,15.23
2022-09-12T05:10:49.866Z,15.19
2022-09-12T05:12:05.891Z,15.15
2022-09-12T05:12:49.831Z,15.12
2022-09-12T05:13:49.811Z,15.07
2022-09-12T05:14:49.791Z,15.01
2022-09-12T05:15:49.774Z,14.95
2022-09-12T05:16:50.027Z,14.96
2022-09-12T05:17:49.741Z,15.07
2022-09-12T05:18:49.719Z,15.14
2022-09-12T05:19:49.700Z,15.11
2022-09-12T05:20:49.687Z,15.01
2022-09-12T05:21:49.661Z,14.96
2022-09-12T05:22:49.645Z,15.03
2022-09-12T05:23:49.645Z,14.99
2022-09-12T05:24:50.758Z,15.07
2022-09-12T05:25:49.591Z,15.12
2022-09-12T05:26:49.578Z,15.10
2022-09-12T05:27:50.580Z,15.10
2022-09-12T05:28:49.537Z,15.11
2022-09-12T05:29:49.524Z,15.08
2022-09-12T05:30:49.541Z,15.14
2022-09-12T05:31:49.483Z,15.03
2022-09-12T05:32:49.467Z,15.04
2022-09-12T05:33:49.456Z,14.99
2022-09-12T05:34:49.431Z,15.03
2022-09-12T05:35:49.417Z,14.97
2022-09-12T05:36:49.404Z,14.99
2022-09-12T05:37:49.379Z,15.03
2022-09-12T05:38:49.360Z,15.08
2022-09-12T05:39:49.423Z,15.11
2022-09-12T05:40:49.324Z,15.10
2022-09-12T05:41:49.313Z,14.97
2022-09-12T05:42:49.287Z,15.05
2022-09-12T05:43:49.272Z,14.93
2022-09-12T05:44:49.248Z,14.99
2022-09-12T05:45:49.254Z,15.04
2022-09-12T05:46:49.214Z,14.96
2022-09-12T05:47:49.198Z,15.01
2022-09-12T05:48:52.517Z,15.08
2022-09-12T05:49:49.162Z,14.93
2022-09-12T05:50:49.147Z,15.05
2022-09-12T05:51:49.126Z,15.10
2022-09-12T05:52:49.115Z,15.14
2022-09-12T05:53:49.088Z,15.17
2022-09-12T05:54:49.071Z,15.25
2022-09-12T05:55:49.077Z,15.23
2022-09-12T05:56:49.037Z,15.14
2022-09-12T05:57:49.016Z,15.17
2022-09-12T05:58:48.997Z,15.23
2022-09-12T05:59:48.977Z,15.23
2022-09-12T06:00:48.964Z,15.22
2022-09-12T06:01:49.114Z,15.30
2022-09-12T06:02:49.027Z,15.33
2022-09-12T06:03:48.913Z,15.41
2022-09-12T06:04:48.894Z,15.44
2022-09-12T06:05:50.753Z,15.50
2022-09-12T06:06:48.946Z,15.59
2022-09-12T06:07:48.835Z,15.58
2022-09-12T06:08:48.819Z,15.60
2022-09-12T06:09:48.805Z,15.58
2022-09-12T06:10:48.787Z,15.56
2022-09-12T06:11:48.787Z,15.62
2022-09-12T06:12:48.749Z,15.52
2022-09-12T06:13:48.727Z,15.59
2022-09-12T06:14:48.716Z,15.54
2022-09-12T06:15:48.699Z,15.62
2022-09-12T06:16:48.871Z,15.73
2022-09-12T06:17:51.412Z,15.76
2022-09-12T06:18:48.644Z,15.73
2022-09-12T06:19:48.629Z,15.60
2022-09-12T06:20:48.610Z,15.69
2022-09-12T06:21:48.597Z,15.73
2022-09-12T06:22:48.576Z,15.81
2022-09-12T06:23:48.557Z,15.84
2022-09-12T06:24:48.545Z,15.91
2022-09-12T06:25:48.521Z,15.93
2022-09-12T06:26:48.513Z,15.91
2022-09-12T06:27:48.522Z,15.80
2022-09-12T06:28:48.507Z,15.95
2022-09-12T06:29:48.457Z,15.95
2022-09-12T06:30:48.481Z,15.93
2022-09-12T06:31:48.527Z,15.90
2022-09-12T06:32:48.404Z,15.88
2022-09-12T06:33:48.387Z,15.90
2022-09-12T06:34:48.371Z,15.95
2022-09-12T06:35:48.356Z,15.95
2022-09-12T06:36:48.330Z,15.93
2022-09-12T06:37:48.322Z,15.96
2022-09-12T06:38:48.300Z,15.90
2022-09-12T06:39:48.328Z,16.00
2022-09-12T06:40:48.269Z,16.02
2022-09-12T06:41:48.250Z,15.99
2022-09-12T06:42:48.234Z,16.13
2022-09-12T06:43:48.239Z,16.18
2022-09-12T06:44:48.196Z,16.34
2022-09-12T06:45:48.219Z,16.34
2022-09-12T06:46:48.182Z,16.37
2022-09-12T06:47:48.152Z,16.46
2022-09-12T06:48:48.244Z,16.51
2022-09-12T06:49:48.119Z,16.47
2022-09-12T06:50:48.110Z,16.57
2022-09-12T06:51:48.085Z,16.58
2022-09-12T06:52:48.067Z,16.67
2022-09-12T06:53:48.051Z,16.84
2022-09-12T06:54:48.034Z,16.84
2022-09-12T06:55:48.020Z,17.06
2022-09-12T06:56:48.002Z,17.06
2022-09-12T06:57:47.986Z,16.98
2022-09-12T06:58:48.223Z,16.92
2022-09-12T06:59:48.024Z,17.20
2022-09-12T07:00:47.977Z,17.16
2022-09-12T07:01:47.962Z,17.20
2022-09-12T07:02:47.910Z,17.38
2022-09-12T07:03:47.896Z,16.97
2022-09-12T07:04:47.881Z,16.94
2022-09-12T07:05:47.864Z,16.88
2022-09-12T07:06:47.860Z,17.07
2022-09-12T07:07:47.842Z,17.38
2022-09-12T07:08:47.829Z,17.59
2022-09-12T07:09:47.808Z,17.88
2022-09-12T07:10:47.791Z,17.71
2022-09-12T07:11:47.778Z,17.87
2022-09-12T07:12:47.769Z,18.03
2022-09-12T07:13:47.753Z,17.78
2022-09-12T07:14:47.752Z,17.71
2022-09-12T07:15:47.748Z,17.81
2022-09-12T07:16:47.749Z,17.91
2022-09-12T07:17:47.697Z,18.17
2022-09-12T07:18:47.683Z,18.30
2022-09-12T07:19:47.670Z,18.28
2022-09-12T07:20:47.654Z,18.43
2022-09-12T07:21:47.641Z,18.24
2022-09-12T07:22:47.628Z,18.38
2022-09-12T07:23:47.813Z,18.41
2022-09-12T07:24:47.598Z,18.39
2022-09-12T07:25:47.583Z,18.46
2022-09-12T07:26:47.568Z,18.63
2022-09-12T07:27:51.115Z,18.78
2022-09-12T07:28:47.543Z,19.07
2022-09-12T07:29:47.526Z,19.34
2022-09-12T07:30:47.560Z,19.30
2022-09-12T07:31:47.519Z,19.32
2022-09-12T07:32:47.486Z,19.20
2022-09-12T07:33:50.091Z,19.31
2022-09-12T07:34:47.457Z,19.45
2022-09-12T07:35:47.446Z,19.56
2022-09-12T07:36:47.431Z,19.67
2022-09-12T07:37:47.417Z,19.78
2022-09-12T07:38:47.608Z,19.78
2022-09-12T07:39:47.428Z,19.79
2022-09-12T07:40:47.377Z,19.77
2022-09-12T07:41:47.367Z,19.12
2022-09-12T07:42:47.363Z,18.74
2022-09-12T07:43:47.597Z,18.71
2022-09-12T07:44:47.323Z,18.88
2022-09-12T07:45:47.350Z,19.09
2022-09-12T07:46:47.301Z,19.16
2022-09-12T07:47:47.303Z,18.97
2022-09-12T07:48:47.272Z,18.66
2022-09-12T07:49:47.255Z,18.31
2022-09-12T07:50:47.248Z,18.46
2022-09-12T07:51:47.231Z,18.43
2022-09-12T07:52:47.218Z,18.52
2022-09-12T07:53:47.360Z,18.78
2022-09-12T07:54:47.190Z,18.61
2022-09-12T07:55:47.174Z,18.74
2022-09-12T07:56:47.159Z,18.66
2022-09-12T07:57:47.150Z,18.67
2022-09-12T07:58:47.139Z,18.70
2022-09-12T07:59:52.773Z,18.67
2022-09-12T08:00:47.107Z,18.83
2022-09-12T08:01:47.109Z,18.97
2022-09-12T08:02:47.116Z,18.43
2022-09-12T08:03:47.217Z,18.28
2022-09-12T08:04:47.049Z,18.12
2022-09-12T08:05:47.039Z,18.21
2022-09-12T08:06:47.019Z,18.33
2022-09-12T08:07:47.014Z,18.39
2022-09-12T08:08:46.988Z,18.38
2022-09-12T08:09:46.978Z,18.51
2022-09-12T08:10:46.961Z,18.60
2022-09-12T08:11:46.950Z,18.61
2022-09-12T08:12:46.938Z,18.71
2022-09-12T08:13:49.586Z,18.97
2022-09-12T08:14:46.912Z,19.05
2022-09-12T08:15:46.912Z,19.16
2022-09-12T08:16:46.875Z,19.32
2022-09-12T08:17:46.857Z,19.30
2022-09-12T08:18:46.844Z,19.34
2022-09-12T08:19:46.848Z,19.39
2022-09-12T08:20:46.818Z,19.42
2022-09-12T08:21:46.804Z,19.49
2022-09-12T08:22:46.786Z,19.56
2022-09-12T08:23:46.810Z,19.57
2022-09-12T08:24:46.758Z,19.47
2022-09-12T08:25:46.746Z,19.50
2022-09-12T08:26:46.733Z,19.50
2022-09-12T08:27:46.716Z,19.60
2022-09-12T08:28:46.702Z,19.52
2022-09-12T08:29:46.688Z,19.52
2022-09-12T08:30:46.704Z,19.53
2022-09-12T08:31:46.663Z,19.49
2022-09-12T08:32:46.642Z,19.52
2022-09-12T08:33:46.748Z,19.62
2022-09-12T08:34:46.616Z,19.74
2022-09-12T08:35:46.631Z,19.87
2022-09-12T08:36:46.585Z,19.87
2022-09-12T08:37:46.577Z,19.75
2022-09-12T08:38:46.557Z,19.97
2022-09-12T08:39:46.593Z,19.90
2022-09-12T08:40:46.543Z,19.89
2022-09-12T08:41:46.519Z,19.92
2022-09-12T08:42:46.508Z,20.04
2022-09-12T08:43:46.586Z,20.11
2022-09-12T08:44:46.474Z,19.96
2022-09-12T08:45:46.471Z,20.09
2022-09-12T08:46:46.878Z,20.08
2022-09-12T08:47:46.433Z,20.15
2022-09-12T08:48:46.418Z,20.23
2022-09-12T08:49:46.408Z,20.27
2022-09-12T08:50:49.847Z,20.41
2022-09-12T08:51:46.412Z,20.49
2022-09-12T08:52:46.364Z,20.61
2022-09-12T08:53:46.477Z,20.68
2022-09-12T08:54:46.332Z,20.93
2022-09-12T08:55:46.325Z,21.05
2022-09-12T08:56:46.311Z,20.89
2022-09-12T08:57:46.293Z,21.03
2022-09-12T08:58:46.286Z,21.01
2022-09-12T08:59:46.289Z,21.23
2022-09-12T09:00:46.257Z,21.45
2022-09-12T09:01:46.302Z,21.65
2022-09-12T09:02:46.351Z,21.91
2022-09-12T09:03:46.406Z,22.21
2022-09-12T09:04:46.211Z,22.13
2022-09-12T09:05:46.194Z,22.27
2022-09-12T09:06:46.176Z,21.93
2022-09-12T09:07:46.191Z,22.06
2022-09-12T09:08:46.151Z,22.22
2022-09-12T09:09:46.139Z,22.21
2022-09-12T09:10:46.132Z,21.73
2022-09-12T09:11:46.117Z,21.77
2022-09-12T09:12:46.101Z,21.74
2022-09-12T09:13:46.259Z,21.77
2022-09-12T09:14:46.074Z,22.01
2022-09-12T09:15:46.130Z,22.25
2022-09-12T09:16:46.053Z,22.56
2022-09-12T09:17:46.045Z,23.33
2022-09-12T09:18:46.025Z,23.98
2022-09-12T09:19:50.507Z,24.47
2022-09-12T09:20:46.005Z,24.65
2022-09-12T09:21:45.988Z,23.96
2022-09-12T09:22:45.981Z,23.97
2022-09-12T09:23:46.050Z,24.40
2022-09-12T09:24:45.957Z,24.60
2022-09-12T09:25:45.947Z,24.94
2022-09-12T09:26:45.937Z,25.28
2022-09-12T09:27:45.927Z,25.46
2022-09-12T09:28:45.910Z,25.53
2022-09-12T09:29:45.909Z,25.40
2022-09-12T09:30:46.002Z,25.33
2022-09-12T09:31:45.879Z,25.30
2022-09-12T09:32:45.872Z,25.33
2022-09-12T09:33:45.921Z,25.26
2022-09-12T09:34:45.845Z,25.06
2022-09-12T09:35:45.835Z,24.93
2022-09-12T09:36:45.832Z,24.55
2022-09-12T09:37:45.809Z,24.31
2022-09-12T09:38:46.019Z,24.23
2022-09-12T09:39:46.153Z,24.43
2022-09-12T09:40:45.776Z,24.94
2022-09-12T09:41:45.778Z,25.37
2022-09-12T09:42:45.755Z,25.73
2022-09-12T09:43:45.740Z,26.21
2022-09-12T09:44:45.729Z,26.68
2022-09-12T09:45:47.830Z,27.27
2022-09-12T09:46:45.709Z,27.76
2022-09-12T09:47:45.698Z,28.32
2022-09-12T09:48:45.706Z,27.26
2022-09-12T09:49:45.677Z,26.70
2022-09-12T09:50:45.673Z,26.70
2022-09-12T09:51:45.652Z,26.23
2022-09-12T09:52:45.650Z,26.07
2022-09-12T09:53:45.636Z,26.78
2022-09-12T09:54:45.629Z,26.80
2022-09-12T09:55:45.636Z,27.17
2022-09-12T09:56:45.605Z,27.83
2022-09-12T09:57:45.596Z,28.65
2022-09-12T09:58:45.585Z,29.55
2022-09-12T09:59:45.577Z,30.21
2022-09-12T10:00:45.571Z,30.35
2022-09-12T10:01:45.596Z,29.54
2022-09-12T10:02:45.588Z,29.78
2022-09-12T10:03:45.570Z,29.87
2022-09-12T10:04:45.524Z,29.54
2022-09-12T10:05:45.515Z,28.87
2022-09-12T10:06:45.506Z,27.70
2022-09-12T10:07:45.503Z,27.66
2022-09-12T10:08:45.554Z,27.50
2022-09-12T10:09:45.489Z,27.41
2022-09-12T10:10:45.472Z,27.42
2022-09-12T10:11:46.113Z,26.94
2022-09-12T10:12:45.454Z,26.51
2022-09-12T10:13:45.444Z,25.92
2022-09-12T10:14:45.433Z,26.00
2022-09-12T10:15:45.473Z,26.00
2022-09-12T10:16:45.417Z,26.01
2022-09-12T10:17:45.408Z,25.73
2022-09-12T10:18:45.397Z,25.21
2022-09-12T10:19:49.870Z,25.04
2022-09-12T10:20:45.375Z,25.11
2022-09-12T10:21:45.363Z,25.26
2022-09-12T10:22:45.351Z,25.14
2022-09-12T10:23:45.401Z,25.06
2022-09-12T10:24:45.332Z,25.23
2022-09-12T10:25:45.329Z,25.33
2022-09-12T10:26:45.314Z,25.78
2022-09-12T10:27:45.321Z,26.11
2022-09-12T10:28:45.453Z,25.98
2022-09-12T10:29:45.290Z,26.33
2022-09-12T10:30:45.316Z,26.63
2022-09-12T10:31:45.262Z,26.89
2022-09-12T10:32:45.256Z,27.20
2022-09-12T10:33:45.348Z,27.37
2022-09-12T10:34:45.234Z,27.66
2022-09-12T10:35:45.221Z,28.00
2022-09-12T10:36:45.214Z,28.13
2022-09-12T10:37:48.339Z,28.13
2022-09-12T10:38:45.192Z,28.07
2022-09-12T10:39:45.263Z,28.09
2022-09-12T10:40:45.169Z,28.19
2022-09-12T10:41:45.164Z,27.49
2022-09-12T10:42:45.159Z,27.63
2022-09-12T10:43:45.270Z,28.01
2022-09-12T10:44:45.140Z,28.15
2022-09-12T10:45:45.183Z,27.85
2022-09-12T10:46:45.121Z,28.12
2022-09-12T10:47:45.107Z,28.38
2022-09-12T10:48:45.101Z,28.54
2022-09-12T10:49:45.094Z,28.44
2022-09-12T10:50:45.084Z,28.54
2022-09-12T10:51:45.070Z,28.28
2022-09-12T10:52:45.066Z,28.07
2022-09-12T10:53:45.150Z,28.09
2022-09-12T10:54:45.049Z,28.37
2022-09-12T10:55:45.036Z,28.56
2022-09-12T10:56:45.032Z,28.80
2022-09-12T10:57:45.016Z,28.69
2022-09-12T10:58:45.010Z,28.71
2022-09-12T10:59:45.017Z,28.54
2022-09-12T11:00:44.991Z,28.81
2022-09-12T11:01:45.002Z,28.91
2022-09-12T11:02:45.026Z,28.90
2022-09-12T11:03:45.062Z,29.09
2022-09-12T11:04:44.951Z,29.09
2022-09-12T11:05:44.952Z,29.17
2022-09-12T11:06:44.936Z,29.04
2022-09-12T11:07:44.925Z,29.24
2022-09-12T11:08:44.920Z,29.33
2022-09-12T11:09:45.054Z,29.50
2022-09-12T11:10:44.902Z,29.59
2022-09-12T11:11:44.886Z,29.65
2022-09-12T11:12:44.884Z,29.66
2022-09-12T11:13:44.870Z,29.83
2022-09-12T11:14:44.855Z,29.65
2022-09-12T11:15:44.904Z,29.73
2022-09-12T11:16:44.844Z,29.63
2022-09-12T11:17:44.833Z,29.18
2022-09-12T11:18:44.821Z,28.65
2022-09-12T11:19:44.815Z,28.20
2022-09-12T11:20:44.815Z,28.19
2022-09-12T11:21:44.942Z,28.31
2022-09-12T11:22:44.788Z,28.53
2022-09-12T11:23:44.822Z,28.40
2022-09-12T11:24:44.762Z,28.57
2022-09-12T11:25:44.760Z,28.84
2022-09-12T11:26:44.747Z,29.03
2022-09-12T11:27:44.740Z,29.17
2022-09-12T11:28:47.271Z,29.03
2022-09-12T11:29:44.719Z,28.83
2022-09-12T11:30:44.717Z,28.87
2022-09-12T11:31:44.720Z,28.96
2022-09-12T11:32:44.701Z,28.94
2022-09-12T11:33:44.781Z,28.96
2022-09-12T11:34:44.671Z,28.81
2022-09-12T11:35:44.663Z,28.68
2022-09-12T11:36:44.653Z,28.62
2022-09-12T11:37:44.647Z,28.61
2022-09-12T11:38:44.696Z,28.42
2022-09-12T11:39:44.742Z,28.32
2022-09-12T11:40:44.614Z,28.30
2022-09-12T11:41:44.607Z,28.06
2022-09-12T11:42:44.598Z,27.63
2022-09-12T11:43:44.622Z,27.57
2022-09-12T11:44:44.578Z,27.69
2022-09-12T11:45:44.626Z,27.87
2022-09-12T11:46:46.730Z,27.97
2022-09-12T11:47:44.572Z,28.12
2022-09-12T11:48:44.590Z,28.49
2022-09-12T11:49:44.535Z,28.71
2022-09-12T11:50:44.520Z,28.46
2022-09-12T11:51:44.510Z,28.27
2022-09-12T11:52:44.505Z,27.98
2022-09-12T11:53:44.579Z,27.40
2022-09-12T11:54:44.481Z,27.44
2022-09-12T11:55:44.471Z,27.53
2022-09-12T11:56:44.459Z,27.34
2022-09-12T11:57:44.466Z,27.15
2022-09-12T11:58:44.443Z,27.01
2022-09-12T11:59:44.483Z,27.26
2022-09-12T12:00:44.427Z,27.23
2022-09-12T12:01:48.526Z,27.35
2022-09-12T12:02:44.450Z,27.26
2022-09-12T12:03:44.499Z,27.26
2022-09-12T12:04:44.382Z,26.88
2022-09-12T12:05:44.375Z,26.49
2022-09-12T12:06:44.367Z,26.11
2022-09-12T12:07:45.795Z,26.11
2022-09-12T12:08:44.354Z,26.26
2022-09-12T12:09:44.573Z,26.08
2022-09-12T12:10:44.331Z,25.90
2022-09-12T12:11:44.314Z,25.92
2022-09-12T12:12:44.305Z,26.12
2022-09-12T12:13:44.295Z,26.19
2022-09-12T12:14:44.280Z,26.31
2022-09-12T12:15:44.301Z,26.64
2022-09-12T12:16:44.260Z,26.79
2022-09-12T12:17:44.251Z,26.93
2022-09-12T12:18:44.242Z,26.83
2022-09-12T12:19:44.250Z,26.75
2022-09-12T12:20:44.220Z,26.67
2022-09-12T12:21:44.210Z,26.93
2022-09-12T12:22:44.199Z,27.03
2022-09-12T12:23:44.199Z,27.30
2022-09-12T12:24:44.181Z,27.47
2022-09-12T12:25:44.170Z,27.79
2022-09-12T12:26:44.162Z,27.82
2022-09-12T12:27:44.172Z,27.97
2022-09-12T12:28:44.136Z,28.07
2022-09-12T12:29:44.505Z,28.28
2022-09-12T12:30:44.143Z,28.00
2022-09-12T12:31:44.107Z,27.97
2022-09-12T12:32:44.098Z,28.07
2022-09-12T12:33:44.086Z,28.01
2022-09-12T12:34:44.080Z,28.10
2022-09-12T12:35:44.105Z,28.30
2022-09-12T12:36:44.056Z,28.54
2022-09-12T12:37:44.044Z,28.66
2022-09-12T12:38:44.037Z,28.64
2022-09-12T12:39:44.137Z,28.89
2022-09-12T12:40:44.018Z,29.10
2022-09-12T12:41:44.017Z,29.18
2022-09-12T12:42:44.000Z,28.59
2022-09-12T12:43:44.087Z,28.52
2022-09-12T12:44:43.981Z,28.19
2022-09-12T12:45:43.973Z,28.05
2022-09-12T12:46:43.961Z,27.98
2022-09-12T12:47:43.957Z,27.95
2022-09-12T12:48:43.949Z,27.85
2022-09-12T12:49:43.936Z,27.93
2022-09-12T12:50:43.925Z,28.12
2022-09-12T12:51:43.934Z,28.16
2022-09-12T12:52:43.902Z,28.35